Lamont, Michigan
Current Conditions -  °F | °C
As of 4:53 PM on Friday 19 Dec 2014 (Local Time) from KGRR Reporting Station
Few Clouds Few Clouds  
Wind Chill: 30°   Ceiling: Unl
Heat Index: 30°   Visibility: 10mi
Dew Point: 19°   Wind: 3mph
Humidity: 64%   Direction: 170°S
Pressure: 30.26"   Gusts: NA
Location:  43.01°N, 85.91°W
Report Text: KGRR 192153Z 17003KT 10SM FEW024 FEW220 M01/M07 A3026 RMK AO2 SLP257 T10111072
Loading
Personal Weather Stations






























Interactive Weather Map New forecast layout! Learn more

10-Day Weather Forecast

Advertisements
Track Severe Weather on mobile